Time;durP1;ratioP1;P1;durP2;ratioP2;P2;SDS_P1;SDS_P2;PMS_P1;PMS_P2;Temp;Humidity;BMP_temperature;BMP_pressure;BME280_temperature;BME280_humidity;BME280_pressure;Samples;Min_cycle;Max_cycle;Signal;HPM_P1;HPM_P2
2023/05/15 00:00:32;;;;;;;11.60;10.50;;;;;;;;;;5112002;28;20055;-62
2023/05/15 00:02:58;;;;;;;10.88;9.88;;;;;;;;;;5111834;28;20067;-61
2023/05/15 00:05:24;;;;;;;11.98;10.82;;;;;;;;;;5112350;28;20085;-62
2023/05/15 00:07:50;;;;;;;11.90;10.70;;;;;;;;;;5111863;28;20023;-61
2023/05/15 00:10:16;;;;;;;11.88;10.77;;;;;;;;;;5112008;28;20348;-61
2023/05/15 00:12:42;;;;;;;12.85;11.60;;;;;;;;;;5111727;28;20027;-65
2023/05/15 00:15:08;;;;;;;12.07;10.88;;;;;;;;;;5111641;28;20026;-62
2023/05/15 00:17:34;;;;;;;11.73;10.63;;;;;;;;;;5111236;28;20497;-61
2023/05/15 00:20:00;;;;;;;11.70;10.40;;;;;;;;;;5111588;28;20118;-61
2023/05/15 00:22:26;;;;;;;12.30;10.88;;;;;;;;;;5112004;28;20028;-63
2023/05/15 00:24:52;;;;;;;11.07;9.98;;;;;;;;;;5111345;28;20043;-61
2023/05/15 00:27:18;;;;;;;12.77;11.40;;;;;;;;;;5111751;28;20058;-63
2023/05/15 00:29:44;;;;;;;11.05;9.95;;;;;;;;;;5111519;28;20491;-61
2023/05/15 00:32:10;;;;;;;11.13;9.93;;;;;;;;;;5111287;28;20031;-61
2023/05/15 00:34:36;;;;;;;11.68;10.57;;;;;;;;;;5111362;28;20399;-61
2023/05/15 00:37:02;;;;;;;10.68;9.73;;;;;;;;;;5111607;28;20038;-61
2023/05/15 00:39:28;;;;;;;10.15;9.23;;;;;;;;;;5111600;28;20016;-62
2023/05/15 00:41:54;;;;;;;11.13;10.02;;;;;;;;;;5111789;28;20088;-62
2023/05/15 00:44:21;;;;;;;11.40;10.27;;;;;;;;;;5111522;28;20123;-61
2023/05/15 00:46:48;;;;;;;11.85;10.60;;;;;;;;;;5110849;28;20094;-62
2023/05/15 00:49:14;;;;;;;10.82;9.75;;;;;;;;;;5111413;28;20031;-62
2023/05/15 00:51:41;;;;;;;9.95;8.95;;;;;;;;;;5111162;28;20058;-61
2023/05/15 00:54:07;;;;;;;11.48;10.48;;;;;;;;;;5111436;28;20372;-62
2023/05/15 00:56:34;;;;;;;11.43;10.32;;;;;;;;;;5111105;28;20070;-61
2023/05/15 00:59:02;;;;;;;11.88;10.68;;;;;;;;;;5111284;28;20416;-61
2023/05/15 01:01:32;;;;;;;11.38;10.27;;;;;;;;;;5111015;28;20038;-61
2023/05/15 01:03:58;;;;;;;12.48;10.32;;;;;;;;;;5111223;28;20024;-61
2023/05/15 01:06:24;;;;;;;12.48;11.27;;;;;;;;;;5111213;28;20040;-65
2023/05/15 01:08:51;;;;;;;11.60;10.50;;;;;;;;;;5110984;28;20028;-62
2023/05/15 01:11:17;;;;;;;12.55;11.25;;;;;;;;;;5111403;28;20363;-61
2023/05/15 01:13:43;;;;;;;12.10;10.90;;;;;;;;;;5110859;28;20047;-61
2023/05/15 01:16:10;;;;;;;13.10;11.80;;;;;;;;;;5110214;28;20476;-61
2023/05/15 01:18:36;;;;;;;12.40;11.10;;;;;;;;;;5110851;28;20024;-61
2023/05/15 01:21:02;;;;;;;13.43;11.82;;;;;;;;;;5110964;28;20058;-61
2023/05/15 01:23:37;;;;;;;11.98;10.88;;;;;;;;;;5110975;28;20445;-61
2023/05/15 01:26:03;;;;;;;12.63;11.32;;;;;;;;;;5112353;28;20031;-61
2023/05/15 01:28:30;;;;;;;13.90;12.50;;;;;;;;;;5114950;28;20020;-63
2023/05/15 01:30:57;;;;;;;12.85;11.55;;;;;;;;;;5115500;28;20031;-61
2023/05/15 01:33:31;;;;;;;13.32;11.95;;;;;;;;;;5115321;28;20030;-63
2023/05/15 01:36:09;;;;;;;13.77;12.45;;;;;;;;;;5115320;28;20139;-63
2023/05/15 01:38:42;;;;;;;15.63;13.80;;;;;;;;;;5114419;28;20031;-64
2023/05/15 01:41:15;;;;;;;14.38;12.88;;;;;;;;;;5115030;28;20031;-63
2023/05/15 01:43:43;;;;;;;15.20;13.70;;;;;;;;;;5114232;28;20470;-63
2023/05/15 01:46:12;;;;;;;15.70;13.63;;;;;;;;;;5114766;28;20031;-63
2023/05/15 01:48:39;;;;;;;14.38;12.82;;;;;;;;;;5114665;28;20531;-63
2023/05/15 01:51:07;;;;;;;14.70;13.13;;;;;;;;;;5114650;28;20027;-63
2023/05/15 01:53:34;;;;;;;16.42;14.77;;;;;;;;;;5114446;28;20043;-63
2023/05/15 01:56:00;;;;;;;15.55;13.90;;;;;;;;;;5114780;27;20039;-63
2023/05/15 01:58:27;;;;;;;15.90;13.77;;;;;;;;;;5114549;28;20376;-60
2023/05/15 02:00:54;;;;;;;15.40;13.90;;;;;;;;;;5114893;28;20059;-62
2023/05/15 02:03:20;;;;;;;15.45;13.88;;;;;;;;;;5114703;28;20092;-63
2023/05/15 02:05:46;;;;;;;16.98;14.73;;;;;;;;;;5114299;28;20516;-63
2023/05/15 02:08:12;;;;;;;16.92;15.18;;;;;;;;;;5114375;28;20103;-62
2023/05/15 02:10:39;;;;;;;16.83;15.13;;;;;;;;;;5114335;28;20063;-62
2023/05/15 02:13:06;;;;;;;16.00;14.40;;;;;;;;;;5114257;28;20039;-62
2023/05/15 02:15:32;;;;;;;15.93;14.30;;;;;;;;;;5114252;28;20107;-63
2023/05/15 02:17:58;;;;;;;17.50;15.70;;;;;;;;;;5114463;28;20091;-62
2023/05/15 02:20:24;;;;;;;17.33;15.52;;;;;;;;;;5114563;28;20111;-62
2023/05/15 02:22:50;;;;;;;17.55;15.68;;;;;;;;;;5113865;28;20114;-62
2023/05/15 02:25:16;;;;;;;16.20;14.38;;;;;;;;;;5114175;28;20112;-63
2023/05/15 02:27:57;;;;;;;17.38;15.57;;;;;;;;;;5113709;28;20036;-64
2023/05/15 02:30:33;;;;;;;16.25;14.63;;;;;;;;;;5114169;28;20426;-62
2023/05/15 02:33:12;;;;;;;16.92;15.05;;;;;;;;;;5114036;28;20392;-63
2023/05/15 02:35:38;;;;;;;18.13;16.13;;;;;;;;;;5113482;27;20028;-65
2023/05/15 02:38:08;;;;;;;18.25;16.38;;;;;;;;;;5113832;28;20058;-63
2023/05/15 02:40:35;;;;;;;18.25;16.35;;;;;;;;;;5113766;28;20024;-63
2023/05/15 02:43:02;;;;;;;18.15;16.00;;;;;;;;;;5113670;28;20069;-62
2023/05/15 02:45:28;;;;;;;18.52;16.55;;;;;;;;;;5113641;28;20039;-62
2023/05/15 02:47:55;;;;;;;18.02;16.17;;;;;;;;;;5114038;28;20054;-63
2023/05/15 02:50:21;;;;;;;18.65;16.75;;;;;;;;;;5113755;28;20031;-62
2023/05/15 02:52:47;;;;;;;17.35;15.55;;;;;;;;;;5113509;28;20027;-64
2023/05/15 02:55:13;;;;;;;17.45;15.65;;;;;;;;;;5113613;28;20023;-63
2023/05/15 02:57:39;;;;;;;20.02;17.90;;;;;;;;;;5113375;28;20471;-64
2023/05/15 03:00:07;;;;;;;20.80;18.48;;;;;;;;;;5113269;28;20024;-63
2023/05/15 03:02:33;;;;;;;19.13;17.02;;;;;;;;;;5113302;28;20110;-62
2023/05/15 03:04:59;;;;;;;18.92;16.98;;;;;;;;;;5113483;28;20027;-63
2023/05/15 03:07:26;;;;;;;18.77;16.88;;;;;;;;;;5113700;28;20438;-63
2023/05/15 03:09:52;;;;;;;18.73;16.90;;;;;;;;;;5113141;28;20023;-64
2023/05/15 03:12:18;;;;;;;20.13;17.75;;;;;;;;;;5113343;28;20094;-62
2023/05/15 03:14:43;;;;;;;18.92;17.13;;;;;;;;;;5112747;28;20038;-62
2023/05/15 03:17:09;;;;;;;19.27;17.30;;;;;;;;;;5113238;28;20035;-63
2023/05/15 03:19:35;;;;;;;20.85;17.67;;;;;;;;;;5112866;28;20099;-63
2023/05/15 03:22:01;;;;;;;18.52;16.63;;;;;;;;;;5113179;28;20107;-64
2023/05/15 03:24:27;;;;;;;18.20;16.27;;;;;;;;;;5113191;28;20365;-62
2023/05/15 03:26:53;;;;;;;19.85;17.75;;;;;;;;;;5111843;27;20036;-62
2023/05/15 03:29:19;;;;;;;18.85;16.95;;;;;;;;;;5112577;28;20479;-63
2023/05/15 03:31:45;;;;;;;18.40;16.58;;;;;;;;;;5112621;28;20039;-60
2023/05/15 03:34:11;;;;;;;18.35;16.45;;;;;;;;;;5112903;28;20108;-62
2023/05/15 03:36:37;;;;;;;19.73;17.63;;;;;;;;;;5112696;28;20479;-62
2023/05/15 03:39:03;;;;;;;18.75;16.83;;;;;;;;;;5112800;28;20031;-62
2023/05/15 03:41:29;;;;;;;18.67;16.73;;;;;;;;;;5112665;28;20430;-63
2023/05/15 03:43:55;;;;;;;18.63;16.52;;;;;;;;;;5111810;28;20038;-62
2023/05/15 03:46:21;;;;;;;17.25;15.52;;;;;;;;;;5112460;28;20114;-62
2023/05/15 03:48:47;;;;;;;18.75;16.13;;;;;;;;;;5111765;28;20073;-62
2023/05/15 03:51:13;;;;;;;18.48;16.58;;;;;;;;;;5112492;28;20028;-62
2023/05/15 03:53:39;;;;;;;19.20;16.70;;;;;;;;;;5112281;28;20055;-63
2023/05/15 03:56:05;;;;;;;18.70;16.80;;;;;;;;;;5112286;28;20459;-62
2023/05/15 03:58:31;;;;;;;17.90;16.05;;;;;;;;;;5111877;28;20076;-63
2023/05/15 04:00:58;;;;;;;19.33;17.35;;;;;;;;;;5112277;28;20028;-63
2023/05/15 04:03:23;;;;;;;18.13;16.27;;;;;;;;;;5112359;28;20031;-63
2023/05/15 04:05:50;;;;;;;18.10;16.30;;;;;;;;;;5112046;28;20035;-62
2023/05/15 04:08:17;;;;;;;18.17;15.77;;;;;;;;;;5112065;28;20027;-63
2023/05/15 04:10:43;;;;;;;18.60;16.60;;;;;;;;;;5111677;27;20034;-64
2023/05/15 04:13:09;;;;;;;17.35;15.65;;;;;;;;;;5111539;28;20024;-63
2023/05/15 04:15:35;;;;;;;18.40;16.30;;;;;;;;;;5112109;28;20028;-62
2023/05/15 04:18:01;;;;;;;18.60;16.70;;;;;;;;;;5111836;28;20498;-63
2023/05/15 04:20:27;;;;;;;17.70;15.93;;;;;;;;;;5111869;28;20023;-62
2023/05/15 04:22:53;;;;;;;17.15;15.45;;;;;;;;;;5111658;28;20094;-63
2023/05/15 04:25:19;;;;;;;18.90;16.08;;;;;;;;;;5111859;28;20031;-62
2023/05/15 04:27:45;;;;;;;17.67;15.77;;;;;;;;;;5111518;28;20102;-62
2023/05/15 04:30:12;;;;;;;17.23;15.35;;;;;;;;;;5111918;28;20023;-62
2023/05/15 04:32:39;;;;;;;16.77;15.15;;;;;;;;;;5111812;28;20062;-63
2023/05/15 04:35:08;;;;;;;17.38;15.48;;;;;;;;;;5111342;28;20024;-62
2023/05/15 04:37:35;;;;;;;16.70;14.93;;;;;;;;;;5111632;28;20028;-62
2023/05/15 04:40:01;;;;;;;18.75;16.85;;;;;;;;;;5111308;28;20545;-62
2023/05/15 04:42:28;;;;;;;16.50;14.85;;;;;;;;;;5111563;28;20019;-63
2023/05/15 04:44:54;;;;;;;18.85;16.77;;;;;;;;;;5111292;28;20038;-63
2023/05/15 04:47:20;;;;;;;18.02;16.20;;;;;;;;;;5111647;28;20146;-62
2023/05/15 04:49:49;;;;;;;16.60;14.90;;;;;;;;;;5111349;28;20020;-62
2023/05/15 04:52:15;;;;;;;17.15;15.35;;;;;;;;;;5111427;28;20107;-63
2023/05/15 04:54:42;;;;;;;17.33;15.57;;;;;;;;;;5111223;28;20027;-62
2023/05/15 04:57:08;;;;;;;16.60;14.88;;;;;;;;;;5111027;28;20483;-62
2023/05/15 04:59:34;;;;;;;17.55;15.65;;;;;;;;;;5111407;28;20110;-62
2023/05/15 05:02:01;;;;;;;16.75;15.05;;;;;;;;;;5110735;28;20035;-62
2023/05/15 05:04:27;;;;;;;17.33;14.63;;;;;;;;;;5111460;28;20032;-62
2023/05/15 05:06:53;;;;;;;16.95;15.15;;;;;;;;;;5111259;28;20114;-62
2023/05/15 05:09:19;;;;;;;17.95;15.23;;;;;;;;;;5110156;28;20030;-63
2023/05/15 05:11:46;;;;;;;17.42;15.63;;;;;;;;;;5110724;28;20032;-62
2023/05/15 05:14:13;;;;;;;16.90;15.20;;;;;;;;;;5111507;28;20035;-62
2023/05/15 05:16:39;;;;;;;17.02;15.30;;;;;;;;;;5110007;28;20036;-62
2023/05/15 05:19:06;;;;;;;16.77;15.07;;;;;;;;;;5111266;28;20028;-62
2023/05/15 05:21:32;;;;;;;16.08;14.48;;;;;;;;;;5109755;28;20042;-62
2023/05/15 05:23:58;;;;;;;17.13;15.32;;;;;;;;;;5111331;28;20617;-62
2023/05/15 05:26:24;;;;;;;17.02;15.23;;;;;;;;;;5111291;28;20039;-62
2023/05/15 05:28:50;;;;;;;17.27;15.48;;;;;;;;;;5110119;28;20940;-62
2023/05/15 05:31:16;;;;;;;17.30;15.02;;;;;;;;;;5111262;28;20433;-62
2023/05/15 05:33:42;;;;;;;16.63;13.70;;;;;;;;;;5110066;28;20028;-62
2023/05/15 05:36:09;;;;;;;16.40;13.88;;;;;;;;;;5111122;28;20028;-62
2023/05/15 05:38:35;;;;;;;17.30;15.50;;;;;;;;;;5110356;28;20031;-62
2023/05/15 05:41:02;;;;;;;23.60;19.33;;;;;;;;;;5111088;28;20475;-62
2023/05/15 05:43:28;;;;;;;18.65;15.88;;;;;;;;;;5111596;28;20028;-61
2023/05/15 05:45:55;;;;;;;18.67;14.73;;;;;;;;;;5110875;28;20044;-61
2023/05/15 05:48:20;;;;;;;19.45;16.25;;;;;;;;;;5110757;28;20024;-62
2023/05/15 05:50:46;;;;;;;18.23;16.27;;;;;;;;;;5110008;28;20042;-63
2023/05/15 05:53:12;;;;;;;18.80;15.65;;;;;;;;;;5110444;28;20399;-63
2023/05/15 05:55:38;;;;;;;18.35;14.98;;;;;;;;;;5109414;28;20019;-63
2023/05/15 05:58:04;;;;;;;16.38;14.60;;;;;;;;;;5110982;28;20028;-62
2023/05/15 06:00:31;;;;;;;17.00;15.18;;;;;;;;;;5111208;28;20027;-63
2023/05/15 06:02:57;;;;;;;19.58;16.52;;;;;;;;;;5109868;28;20028;-63
2023/05/15 06:05:27;;;;;;;21.23;16.50;;;;;;;;;;5110936;28;20055;-63
2023/05/15 06:07:53;;;;;;;17.77;14.60;;;;;;;;;;5110554;28;20035;-64
2023/05/15 06:10:20;;;;;;;18.65;16.17;;;;;;;;;;5110068;28;20026;-63
2023/05/15 06:12:46;;;;;;;19.52;16.17;;;;;;;;;;5113097;28;20028;-63
2023/05/15 06:15:12;;;;;;;19.58;16.75;;;;;;;;;;5114307;27;20073;-64
2023/05/15 06:17:38;;;;;;;18.30;15.65;;;;;;;;;;5113724;28;20102;-62
2023/05/15 06:20:08;;;;;;;17.58;15.75;;;;;;;;;;5114211;28;20062;-63
2023/05/15 06:22:35;;;;;;;19.20;16.17;;;;;;;;;;5114118;28;20085;-63
2023/05/15 06:25:04;;;;;;;17.80;15.63;;;;;;;;;;5114357;28;20063;-63
2023/05/15 06:27:31;;;;;;;21.67;15.82;;;;;;;;;;5114670;28;20066;-64
2023/05/15 06:29:57;;;;;;;19.30;16.27;;;;;;;;;;5114100;28;20026;-63
2023/05/15 06:32:23;;;;;;;20.48;15.82;;;;;;;;;;5114230;28;20523;-62
2023/05/15 06:34:49;;;;;;;18.65;16.10;;;;;;;;;;5113109;28;20020;-62
2023/05/15 06:37:15;;;;;;;21.33;16.65;;;;;;;;;;5113474;28;20172;-62
2023/05/15 06:39:41;;;;;;;19.70;16.23;;;;;;;;;;5113217;28;20107;-62
2023/05/15 06:42:07;;;;;;;21.13;18.80;;;;;;;;;;5113054;28;20022;-62
2023/05/15 06:44:33;;;;;;;17.02;14.73;;;;;;;;;;5110423;28;20024;-62
2023/05/15 06:46:59;;;;;;;18.45;16.55;;;;;;;;;;5114061;28;20131;-62
2023/05/15 06:49:25;;;;;;;18.67;15.35;;;;;;;;;;5112445;28;20051;-63
2023/05/15 06:51:51;;;;;;;21.60;19.27;;;;;;;;;;5113325;28;20142;-63
2023/05/15 06:54:17;;;;;;;18.23;16.33;;;;;;;;;;5112938;28;20080;-63
2023/05/15 06:56:44;;;;;;;24.15;19.10;;;;;;;;;;5113124;28;20091;-63
2023/05/15 06:59:10;;;;;;;21.30;15.85;;;;;;;;;;5113591;28;20027;-62
2023/05/15 07:01:37;;;;;;;23.20;16.77;;;;;;;;;;5112730;28;20028;-63
2023/05/15 07:04:03;;;;;;;18.55;16.00;;;;;;;;;;5113911;28;20031;-63
2023/05/15 07:06:30;;;;;;;17.63;15.07;;;;;;;;;;5113489;28;20032;-62
2023/05/15 07:08:56;;;;;;;18.80;15.57;;;;;;;;;;5113164;28;20360;-62
2023/05/15 07:11:22;;;;;;;19.35;17.10;;;;;;;;;;5113499;27;20043;-62
2023/05/15 07:13:48;;;;;;;17.35;14.82;;;;;;;;;;5113338;28;20023;-62
2023/05/15 07:16:14;;;;;;;18.55;15.13;;;;;;;;;;5113385;28;20053;-62
2023/05/15 07:18:41;;;;;;;17.92;15.45;;;;;;;;;;5113054;28;20024;-62
2023/05/15 07:21:07;;;;;;;20.85;15.73;;;;;;;;;;5113177;28;20040;-61
2023/05/15 07:23:33;;;;;;;19.55;16.02;;;;;;;;;;5112488;28;20016;-62
2023/05/15 07:25:59;;;;;;;22.60;17.88;;;;;;;;;;5111795;28;20043;-62
2023/05/15 07:28:25;;;;;;;23.20;19.27;;;;;;;;;;5112942;28;20442;-63
2023/05/15 07:30:51;;;;;;;24.08;19.67;;;;;;;;;;5112943;28;20027;-63
2023/05/15 07:33:17;;;;;;;19.13;16.48;;;;;;;;;;5111674;28;20019;-62
2023/05/15 07:35:43;;;;;;;24.27;19.08;;;;;;;;;;5110999;27;20024;-61
2023/05/15 07:38:09;;;;;;;20.77;17.42;;;;;;;;;;5111429;27;20015;-61
2023/05/15 07:40:35;;;;;;;19.42;15.65;;;;;;;;;;5111204;28;20391;-61
2023/05/15 07:43:01;;;;;;;24.58;18.73;;;;;;;;;;5111395;28;20028;-62
2023/05/15 07:45:27;;;;;;;24.38;18.63;;;;;;;;;;5111242;28;20497;-61
2023/05/15 07:47:53;;;;;;;24.55;19.33;;;;;;;;;;5110832;28;20030;-61
2023/05/15 07:50:19;;;;;;;25.45;19.60;;;;;;;;;;5108419;28;20016;-61
2023/05/15 07:52:45;;;;;;;24.98;18.60;;;;;;;;;;5110802;28;20378;-62
2023/05/15 07:55:11;;;;;;;25.92;19.30;;;;;;;;;;5111629;28;20019;-62
2023/05/15 07:57:38;;;;;;;24.30;18.33;;;;;;;;;;5112658;28;20026;-62
2023/05/15 08:00:09;;;;;;;26.75;20.02;;;;;;;;;;5112774;28;20062;-62
2023/05/15 08:02:35;;;;;;;24.35;18.80;;;;;;;;;;5110904;28;20118;-62
2023/05/15 08:05:02;;;;;;;24.77;19.33;;;;;;;;;;5110568;28;20055;-62
2023/05/15 08:07:30;;;;;;;23.13;16.92;;;;;;;;;;5109770;28;20410;-63
2023/05/15 08:09:56;;;;;;;28.85;20.70;;;;;;;;;;5110379;28;20107;-64
2023/05/15 08:12:22;;;;;;;29.52;17.52;;;;;;;;;;5110666;28;20127;-62
2023/05/15 08:14:52;;;;;;;24.23;19.10;;;;;;;;;;5110391;28;20020;-62
2023/05/15 08:17:19;;;;;;;26.50;19.38;;;;;;;;;;5110490;28;20046;-63
2023/05/15 08:19:45;;;;;;;23.88;18.52;;;;;;;;;;5110011;28;20068;-62
2023/05/15 08:22:11;;;;;;;25.55;20.38;;;;;;;;;;5110563;28;20032;-62
2023/05/15 08:24:37;;;;;;;24.58;18.77;;;;;;;;;;5110316;27;20421;-62
2023/05/15 08:27:07;;;;;;;24.15;19.17;;;;;;;;;;5111898;28;20457;-62
2023/05/15 08:29:33;;;;;;;24.70;19.77;;;;;;;;;;5112138;28;20051;-62
2023/05/15 08:32:00;;;;;;;26.17;21.17;;;;;;;;;;5110034;28;20110;-62
2023/05/15 08:34:25;;;;;;;21.83;17.13;;;;;;;;;;5112387;27;20393;-63
2023/05/15 08:36:51;;;;;;;25.38;18.52;;;;;;;;;;5109032;27;20081;-65
2023/05/15 08:39:18;;;;;;;26.98;19.52;;;;;;;;;;5109778;28;20099;-62
2023/05/15 08:41:56;;;;;;;26.25;20.20;;;;;;;;;;5109725;28;20084;-62
2023/05/15 08:44:23;;;;;;;25.23;18.42;;;;;;;;;;5112257;27;20054;-61
2023/05/15 08:46:49;;;;;;;26.58;20.23;;;;;;;;;;5110965;27;20039;-62
2023/05/15 08:49:36;;;;;;;23.65;18.58;;;;;;;;;;5110878;27;20019;-63
2023/05/15 08:52:03;;;;;;;26.08;18.17;;;;;;;;;;5124993;27;20028;-62
2023/05/15 08:54:29;;;;;;;25.85;18.45;;;;;;;;;;5116494;27;20093;-62
2023/05/15 08:56:55;;;;;;;24.52;18.48;;;;;;;;;;5122513;27;20422;-62
2023/05/15 08:59:21;;;;;;;24.83;18.50;;;;;;;;;;5111263;27;20031;-63
2023/05/15 09:01:48;;;;;;;21.40;17.23;;;;;;;;;;5126658;27;20112;-62
2023/05/15 09:04:14;;;;;;;21.60;16.50;;;;;;;;;;5112536;28;20514;-62
2023/05/15 09:06:41;;;;;;;20.05;16.38;;;;;;;;;;5111675;28;20469;-64
2023/05/15 09:09:12;;;;;;;21.40;17.17;;;;;;;;;;5111918;28;20483;-62
2023/05/15 09:11:38;;;;;;;17.98;14.60;;;;;;;;;;5109489;28;20027;-62
2023/05/15 09:14:06;;;;;;;17.83;14.25;;;;;;;;;;5114276;28;20095;-62
2023/05/15 09:16:32;;;;;;;17.67;14.55;;;;;;;;;;5113079;28;20411;-61
2023/05/15 09:18:58;;;;;;;18.45;14.30;;;;;;;;;;5114380;28;20046;-62
2023/05/15 09:21:25;;;;;;;17.10;14.55;;;;;;;;;;5109143;28;20039;-61
2023/05/15 09:23:51;;;;;;;18.60;14.80;;;;;;;;;;5109431;28;20035;-64
2023/05/15 09:26:17;;;;;;;17.60;14.40;;;;;;;;;;5112479;28;20454;-63
2023/05/15 09:28:43;;;;;;;20.70;16.65;;;;;;;;;;5120740;28;20114;-62
2023/05/15 09:31:10;;;;;;;19.42;15.20;;;;;;;;;;5120999;28;20107;-62
2023/05/15 09:33:37;;;;;;;19.00;14.77;;;;;;;;;;5116482;28;20507;-63
2023/05/15 09:36:04;;;;;;;21.88;17.10;;;;;;;;;;5127506;28;20031;-62
2023/05/15 09:38:33;;;;;;;18.45;15.10;;;;;;;;;;5116054;28;20060;-62
2023/05/15 09:41:06;;;;;;;18.42;14.88;;;;;;;;;;5121200;28;20092;-62
2023/05/15 09:43:39;;;;;;;16.73;13.52;;;;;;;;;;5124950;28;20023;-62
2023/05/15 09:46:07;;;;;;;19.58;14.98;;;;;;;;;;5112152;28;20036;-62
2023/05/15 09:48:33;;;;;;;17.80;14.68;;;;;;;;;;5115757;27;20023;-62
2023/05/15 09:51:00;;;;;;;20.38;14.65;;;;;;;;;;5122898;27;20023;-63
2023/05/15 09:53:28;;;;;;;15.10;11.88;;;;;;;;;;5120999;27;20084;-62
2023/05/15 09:55:54;;;;;;;16.10;12.73;;;;;;;;;;5113502;28;20482;-62
2023/05/15 09:58:20;;;;;;;18.98;14.13;;;;;;;;;;5130864;27;20015;-62
2023/05/15 10:00:46;;;;;;;20.38;14.75;;;;;;;;;;5121607;27;20071;-62
2023/05/15 10:03:13;;;;;;;19.08;14.20;;;;;;;;;;5123122;27;20027;-63
2023/05/15 10:05:39;;;;;;;24.15;13.73;;;;;;;;;;5125917;27;20382;-62
2023/05/15 10:08:05;;;;;;;18.45;13.05;;;;;;;;;;5117930;27;20102;-62
2023/05/15 10:10:32;;;;;;;20.73;15.85;;;;;;;;;;5129187;27;20027;-62
2023/05/15 10:13:02;;;;;;;21.15;13.20;;;;;;;;;;5113720;27;20104;-63
2023/05/15 10:15:28;;;;;;;15.63;12.07;;;;;;;;;;5111387;27;20015;-63
2023/05/15 10:17:54;;;;;;;16.83;12.50;;;;;;;;;;5113753;27;20068;-63
2023/05/15 10:20:21;;;;;;;18.60;13.57;;;;;;;;;;5115394;27;20031;-62
2023/05/15 10:22:52;;;;;;;15.73;11.82;;;;;;;;;;5111830;27;20019;-62
2023/05/15 10:25:22;;;;;;;16.88;12.50;;;;;;;;;;5114450;27;20039;-63
